Archival Weather

Chicago O'Hare International

Chicago, Illinois (KORD)

Report from: Wednesday, March 27, 2024 1:51 AM CDT
Current time: Tuesday, May 21, 2024 12:17 PM CDT

Current weather – Weather history – Daily summaries
Weather forecast

Temperature0.0°C (32.0°F)
Wind chill-5.5°C (22.0°F)
Dew point-5.0°C (23.0°F)
Winds 12 kts (6.2 m/s, 13.8 mph) West (260°)
Wind gusts 21 kts (10.8 m/s, 24.2 mph)
Peak wind 30 kts (15.4 m/s, 34.5 mph) West (260°) at 06:26
Visibility10 mi. (16.1 km)
Clouds Ceiling: Overcast 2,100 ft. (640 m)
Altimeter29.84 in.Hg (1010 mB)
Relative humidity69 %
Density altitude-1,682 ft. (-513 m)
Sea-level pressure101.1 kPa (1011 mB, 29.85 in.Hg)
Remarks System requires maintenance
Automated weather observing station with precipitation discriminator
Flight conditions Marginal Visual Meteorological Conditions
Raw dataKORD 270651Z 26012G21KT 10SM OVC021 00/M05 A2984 RMK AO2 PK WND 26030/0626 SLP108 T00001050 $
An error has occurred. This application may no longer respond until reloaded. Reload 🗙